createdAt,value
2018-02-03T00:01:30.872Z,97492.33
2018-02-03T00:03:58.335Z,97491.14
2018-02-03T00:06:25.793Z,97489.48
2018-02-03T00:08:53.605Z,97491.16
2018-02-03T00:11:21.116Z,97486.42
2018-02-03T00:13:48.572Z,97480.63
2018-02-03T00:16:16.556Z,97478.11
2018-02-03T00:18:45.626Z,97479.58
2018-02-03T00:21:13.111Z,97474.77
2018-02-03T00:23:41.086Z,97477.03
2018-02-03T00:26:08.548Z,97472.31
2018-02-03T00:28:36.007Z,97479.91
2018-02-03T00:31:03.843Z,97473.84
2018-02-03T00:33:31.299Z,97472.31
2018-02-03T00:35:58.778Z,97461.27
2018-02-03T00:38:26.480Z,97473.06
2018-02-03T00:40:53.945Z,97468.74
2018-02-03T00:43:21.401Z,97468.44
2018-02-03T00:45:48.993Z,97463.50
2018-02-03T00:48:16.457Z,97462.95
2018-02-03T00:50:43.920Z,97467.55
2018-02-03T00:53:11.840Z,97469.27
2018-02-03T00:55:39.577Z,97464.42
2018-02-03T00:58:07.034Z,97466.91
2018-02-03T01:00:34.833Z,97473.20
2018-02-03T01:03:02.290Z,97470.33
2018-02-03T01:05:29.755Z,97465.86
2018-02-03T01:07:57.518Z,97470.60
2018-02-03T01:10:24.975Z,97465.09
2018-02-03T01:12:52.481Z,97458.53
2018-02-03T01:15:20.197Z,97453.19
2018-02-03T01:17:47.646Z,97457.21
2018-02-03T01:20:16.427Z,97448.84
2018-02-03T01:22:44.427Z,97456.88
2018-02-03T01:25:11.878Z,97448.22
2018-02-03T01:27:39.333Z,97452.97
2018-02-03T01:30:07.112Z,97453.84
2018-02-03T01:32:34.577Z,97462.53
2018-02-03T01:35:02.042Z,97457.16
2018-02-03T01:37:29.809Z,97456.30
2018-02-03T01:39:57.268Z,97460.45
2018-02-03T01:42:24.732Z,97457.44
2018-02-03T01:44:52.487Z,97458.71
2018-02-03T01:47:19.953Z,97458.76
2018-02-03T01:49:47.413Z,97454.83
2018-02-03T01:52:15.167Z,97454.45
2018-02-03T01:54:42.629Z,97447.55
2018-02-03T01:57:10.091Z,97450.03
2018-02-03T01:59:38.009Z,97449.19
2018-02-03T02:02:05.467Z,97448.13
2018-02-03T02:04:32.925Z,97437.39
2018-02-03T02:07:00.821Z,97430.95
2018-02-03T02:09:28.272Z,97429.16
2018-02-03T02:11:55.733Z,97421.48
2018-02-03T02:14:23.540Z,97421.77
2018-02-03T02:16:50.997Z,97414.95
2018-02-03T02:19:18.457Z,97415.61
2018-02-03T02:21:46.529Z,97411.47
2018-02-03T02:24:13.987Z,97406.95
2018-02-03T02:26:41.534Z,97405.84
2018-02-03T02:29:09.528Z,97404.48
2018-02-03T02:31:36.995Z,97397.02
2018-02-03T02:34:04.461Z,97402.95
2018-02-03T02:36:32.526Z,97399.44
2018-02-03T02:38:59.981Z,97403.65
2018-02-03T02:41:27.445Z,97391.70
2018-02-03T02:43:55.212Z,97392.84
2018-02-03T02:46:22.668Z,97390.51
2018-02-03T02:48:50.144Z,97389.06
2018-02-03T02:51:17.900Z,97390.54
2018-02-03T02:53:45.364Z,97387.86
2018-02-03T02:56:12.832Z,97384.72
2018-02-03T02:58:40.588Z,97389.02
2018-02-03T03:01:08.050Z,97379.53
2018-02-03T03:03:35.505Z,97379.98
2018-02-03T03:06:03.880Z,97373.10
2018-02-03T03:08:31.340Z,97368.42
2018-02-03T03:10:58.808Z,97375.09
2018-02-03T03:13:26.592Z,97364.68
2018-02-03T03:15:54.044Z,97365.47
2018-02-03T03:18:21.505Z,97371.02
2018-02-03T03:20:49.252Z,97371.05
2018-02-03T03:23:17.316Z,97376.92
2018-02-03T03:25:44.777Z,97376.77
2018-02-03T03:28:12.555Z,97372.53
2018-02-03T03:30:40.019Z,97372.17
2018-02-03T03:33:07.486Z,97375.81
2018-02-03T03:35:35.220Z,97376.50
2018-02-03T03:38:02.681Z,97367.62
2018-02-03T03:40:30.142Z,97368.56
2018-02-03T03:42:58.573Z,97370.33
2018-02-03T03:45:26.033Z,97367.28
2018-02-03T03:47:53.484Z,97363.45
2018-02-03T03:50:21.539Z,97365.61
2018-02-03T03:52:48.988Z,97362.05
2018-02-03T03:55:16.445Z,97363.23
2018-02-03T03:57:44.152Z,97365.97
2018-02-03T04:00:11.598Z,97370.89
2018-02-03T04:02:39.062Z,97370.74
2018-02-03T04:05:06.923Z,97370.53
2018-02-03T04:07:34.385Z,97370.22
2018-02-03T04:10:01.846Z,97378.27
2018-02-03T04:12:29.610Z,97376.77
2018-02-03T04:14:57.077Z,97376.45
2018-02-03T04:17:24.526Z,97384.30
2018-02-03T04:19:52.911Z,97369.72
2018-02-03T04:22:20.373Z,97363.70
2018-02-03T04:24:48.211Z,97355.95
2018-02-03T04:27:15.927Z,97341.95
2018-02-03T04:29:43.386Z,97342.42
2018-02-03T04:32:10.833Z,97341.07
2018-02-03T04:34:38.591Z,97336.77
2018-02-03T04:37:06.057Z,97333.55
2018-02-03T04:39:33.519Z,97323.50
2018-02-03T04:42:01.893Z,97331.37
2018-02-03T04:44:29.358Z,97333.06
2018-02-03T04:46:57.199Z,97329.87
2018-02-03T04:49:25.142Z,97326.09
2018-02-03T04:51:52.604Z,97327.55
2018-02-03T04:54:20.064Z,97327.61
2018-02-03T04:56:48.181Z,97320.34
2018-02-03T04:59:15.647Z,97317.87
2018-02-03T05:08:26.464Z,97311.07
2018-02-03T05:10:53.916Z,97307.27
2018-02-03T05:13:21.369Z,97310.49
2018-02-03T05:15:49.101Z,97303.04
2018-02-03T05:18:16.557Z,97303.46
2018-02-03T05:20:44.016Z,97303.55
2018-02-03T05:23:11.844Z,97306.11
2018-02-03T05:25:40.033Z,97311.27
2018-02-03T05:28:07.485Z,97304.58
2018-02-03T05:30:35.313Z,97309.56
2018-02-03T05:33:02.773Z,97305.43
2018-02-03T05:35:30.232Z,97309.99
2018-02-03T05:37:57.811Z,97317.98
2018-02-03T05:40:25.336Z,97310.84
2018-02-03T05:42:52.801Z,97312.36
2018-02-03T05:45:20.444Z,97308.91
2018-02-03T05:47:47.903Z,97302.98
2018-02-03T05:50:15.361Z,97304.11
2018-02-03T05:52:42.992Z,97302.66
2018-02-03T05:55:10.452Z,97297.16
2018-02-03T05:57:37.908Z,97302.16
2018-02-03T06:00:05.700Z,97304.47
2018-02-03T06:02:33.161Z,97302.11
2018-02-03T06:05:00.611Z,97299.05
2018-02-03T06:07:28.263Z,97298.17
2018-02-03T06:09:55.709Z,97295.05
2018-02-03T06:12:23.164Z,97293.83
2018-02-03T06:14:51.265Z,97296.50
2018-02-03T06:17:18.840Z,97298.22
2018-02-03T06:19:46.303Z,97292.56
2018-02-03T06:22:14.303Z,97293.72
2018-02-03T06:24:41.752Z,97287.72
2018-02-03T06:27:09.861Z,97291.03
2018-02-03T06:29:37.869Z,97283.09
2018-02-03T06:32:05.328Z,97287.21
2018-02-03T06:34:32.789Z,97281.56
2018-02-03T06:37:00.502Z,97283.38
2018-02-03T06:39:27.963Z,97282.02
2018-02-03T06:41:55.416Z,97274.41
2018-02-03T06:44:23.253Z,97272.66
2018-02-03T06:46:51.261Z,97271.83
2018-02-03T06:49:18.855Z,97273.70
2018-02-03T06:51:46.861Z,97272.14
2018-02-03T06:54:14.327Z,97269.39
2018-02-03T06:56:41.784Z,97260.32
2018-02-03T06:59:09.540Z,97261.52
2018-02-03T07:01:36.996Z,97265.27
2018-02-03T07:04:04.456Z,97265.33
2018-02-03T07:06:32.218Z,97266.05
2018-02-03T07:08:59.677Z,97267.94
2018-02-03T07:11:27.126Z,97268.22
2018-02-03T07:13:54.849Z,97271.98
2018-02-03T07:16:22.306Z,97271.74
2018-02-03T07:18:49.770Z,97269.89
2018-02-03T07:21:17.602Z,97278.45
2018-02-03T07:23:45.061Z,97281.13
2018-02-03T07:26:12.832Z,97282.58
2018-02-03T07:28:40.905Z,97295.21
2018-02-03T07:31:08.370Z,97299.00
2018-02-03T07:33:35.820Z,97300.69
2018-02-03T07:36:03.400Z,97300.66
2018-02-03T07:38:30.861Z,97302.58
2018-02-03T07:40:58.316Z,97305.53
2018-02-03T07:43:26.585Z,97306.27
2018-02-03T07:45:54.036Z,97303.27
2018-02-03T07:48:21.490Z,97295.03
2018-02-03T07:50:49.573Z,97293.23
2018-02-03T07:53:17.061Z,97297.78
2018-02-03T07:55:44.522Z,97299.96
2018-02-03T07:58:12.313Z,97301.80
2018-02-03T08:00:39.940Z,97301.89
2018-02-03T08:03:07.435Z,97297.39
2018-02-03T08:05:35.257Z,97294.96
2018-02-03T08:08:02.745Z,97292.33
2018-02-03T08:10:30.222Z,97294.08
2018-02-03T08:12:57.957Z,97277.55
2018-02-03T08:15:25.431Z,97279.63
2018-02-03T08:17:52.911Z,97276.62
2018-02-03T08:20:20.649Z,97269.14
2018-02-03T08:22:48.114Z,97267.22
2018-02-03T08:25:15.581Z,97264.75
2018-02-03T08:27:43.318Z,97260.45
2018-02-03T08:30:11.159Z,97248.13
2018-02-03T08:32:38.646Z,97245.67
2018-02-03T08:35:06.627Z,97241.27
2018-02-03T08:37:34.149Z,97237.18
2018-02-03T08:40:01.614Z,97239.05
2018-02-03T08:42:29.456Z,97236.70
2018-02-03T08:44:56.914Z,97228.38
2018-02-03T08:47:24.365Z,97218.48
2018-02-03T08:49:52.361Z,97215.41
2018-02-03T08:52:19.683Z,97220.22
2018-02-03T08:54:47.143Z,97222.09
2018-02-03T08:57:14.990Z,97220.52
2018-02-03T08:59:42.441Z,97226.41
2018-02-03T09:02:10.224Z,97229.58
2018-02-03T09:04:37.977Z,97234.89
2018-02-03T09:07:05.425Z,97241.73
2018-02-03T09:09:32.880Z,97249.67
2018-02-03T09:12:05.385Z,97243.28
2018-02-03T09:14:32.817Z,97240.20
2018-02-03T09:17:00.276Z,97246.62
2018-02-03T09:19:27.969Z,97239.12
2018-02-03T09:21:55.484Z,97234.41
2018-02-03T09:24:22.949Z,97229.85
2018-02-03T09:26:50.960Z,97239.19
2018-02-03T09:29:18.413Z,97237.11
2018-02-03T09:31:46.596Z,97239.03
2018-02-03T09:34:14.302Z,97240.36
2018-02-03T09:36:41.764Z,97239.67
2018-02-03T09:39:09.230Z,97242.04
2018-02-03T09:41:37.254Z,97240.41
2018-02-03T09:44:04.705Z,97238.31
2018-02-03T09:46:32.151Z,97234.72
2018-02-03T09:48:59.937Z,97228.49
2018-02-03T09:51:27.400Z,97230.09
2018-02-03T09:53:54.857Z,97229.46
2018-02-03T09:56:22.996Z,97217.41
2018-02-03T09:58:50.428Z,97215.73
2018-02-03T10:01:17.876Z,97218.35
2018-02-03T10:03:45.932Z,97220.66
2018-02-03T10:06:13.381Z,97218.08
2018-02-03T10:08:40.828Z,97217.31
2018-02-03T10:11:08.537Z,97212.31
2018-02-03T10:13:36.000Z,97210.03
2018-02-03T10:16:03.448Z,97214.07
2018-02-03T10:18:31.300Z,97214.99
2018-02-03T10:20:58.751Z,97209.95
2018-02-03T10:23:27.143Z,97203.63
2018-02-03T10:25:54.592Z,97204.36
2018-02-03T10:28:22.116Z,97196.34
2018-02-03T10:30:49.889Z,97194.59
2018-02-03T10:33:17.402Z,97185.83
2018-02-03T10:35:44.856Z,97190.53
2018-02-03T10:38:13.130Z,97187.53
2018-02-03T10:40:40.588Z,97177.78
2018-02-03T10:43:08.032Z,97180.09
2018-02-03T10:45:36.133Z,97174.83
2018-02-03T10:48:03.591Z,97176.61
2018-02-03T10:50:31.042Z,97178.69
2018-02-03T10:52:58.812Z,97170.66
2018-02-03T10:55:26.481Z,97166.70
2018-02-03T10:57:54.048Z,97167.05
2018-02-03T11:00:21.805Z,97174.84
2018-02-03T11:02:49.252Z,97172.36
2018-02-03T11:05:16.708Z,97173.84
2018-02-03T11:07:44.500Z,97184.87
2018-02-03T11:10:11.953Z,97188.64
2018-02-03T11:12:39.403Z,97185.41
2018-02-03T11:15:07.067Z,97188.75
2018-02-03T11:17:34.535Z,97190.83
2018-02-03T11:20:02.072Z,97196.93
2018-02-03T11:22:29.920Z,97197.77
2018-02-03T11:24:57.712Z,97193.73
2018-02-03T11:27:25.156Z,97186.78
2018-02-03T11:29:53.195Z,97181.80
2018-02-03T11:32:20.647Z,97180.72
2018-02-03T11:34:48.179Z,97176.86
2018-02-03T11:37:16.471Z,97175.45
2018-02-03T11:39:43.949Z,97179.00
2018-02-03T11:42:11.886Z,97175.45
2018-02-03T11:44:40.545Z,97178.75
2018-02-03T11:47:08.002Z,97172.19
2018-02-03T11:49:35.453Z,97181.38
2018-02-03T11:52:03.390Z,97179.25
2018-02-03T11:54:31.788Z,97169.78
2018-02-03T11:56:59.580Z,97162.75
2018-02-03T11:59:27.629Z,97163.69
2018-02-03T12:01:55.097Z,97165.13
2018-02-03T12:04:23.149Z,97166.02
2018-02-03T12:06:52.348Z,97160.71
2018-02-03T12:09:20.260Z,97161.97
2018-02-03T12:11:47.980Z,97154.75
2018-02-03T12:14:16.082Z,97160.89
2018-02-03T12:16:43.546Z,97151.50
2018-02-03T12:19:11.029Z,97157.61
2018-02-03T12:21:38.734Z,97148.40
2018-02-03T12:24:06.193Z,97147.86
2018-02-03T12:26:34.356Z,97135.15
2018-02-03T12:29:02.357Z,97131.34
2018-02-03T12:31:29.813Z,97121.88
2018-02-03T12:33:58.290Z,97121.44
2018-02-03T12:36:26.057Z,97120.93
2018-02-03T12:38:53.526Z,97118.83
2018-02-03T12:41:20.985Z,97122.71
2018-02-03T12:43:48.948Z,97123.47
2018-02-03T12:46:16.396Z,97120.31
2018-02-03T12:48:43.861Z,97116.38
2018-02-03T12:51:11.610Z,97119.13
2018-02-03T13:00:22.537Z,97107.87
2018-02-03T13:02:49.980Z,97103.23
2018-02-03T13:05:17.439Z,97104.27
2018-02-03T13:07:45.148Z,97100.06
2018-02-03T13:10:12.596Z,97103.00
2018-02-03T13:12:40.068Z,97093.75
2018-02-03T13:15:07.721Z,97087.55
2018-02-03T13:17:35.177Z,97091.55
2018-02-03T13:20:02.627Z,97085.47
2018-02-03T13:22:30.528Z,97083.63
2018-02-03T13:24:57.984Z,97085.39
2018-02-03T13:27:27.667Z,97091.63
2018-02-03T13:29:55.248Z,97088.32
2018-02-03T13:32:22.696Z,97092.22
2018-02-03T13:34:50.148Z,97089.60
2018-02-03T13:37:18.049Z,97092.64
2018-02-03T13:39:45.500Z,97092.60
2018-02-03T13:42:12.951Z,97089.92
2018-02-03T13:44:40.660Z,97095.12
2018-02-03T13:47:08.125Z,97090.36
2018-02-03T13:49:35.582Z,97085.42
2018-02-03T13:52:03.418Z,97089.94
2018-02-03T13:54:30.864Z,97085.86
2018-02-03T13:56:58.320Z,97098.40
2018-02-03T13:59:26.120Z,97084.44
2018-02-03T14:01:53.585Z,97084.17
2018-02-03T14:04:21.039Z,97087.50
2018-02-03T14:06:48.619Z,97073.31
2018-02-03T14:09:16.067Z,97071.66
2018-02-03T14:11:43.520Z,97072.47
2018-02-03T14:14:11.482Z,97076.88
2018-02-03T14:16:38.932Z,97073.08
2018-02-03T14:19:06.384Z,97065.44
2018-02-03T14:21:34.480Z,97069.83
2018-02-03T14:24:07.469Z,97072.50
2018-02-03T14:26:35.245Z,97081.38
2018-02-03T14:29:03.069Z,97071.84
2018-02-03T14:31:30.515Z,97080.08
2018-02-03T14:33:58.256Z,97080.16
2018-02-03T14:36:25.704Z,97079.09
2018-02-03T14:38:53.159Z,97086.30
2018-02-03T14:41:20.837Z,97090.89
2018-02-03T14:43:48.281Z,97088.21
2018-02-03T14:46:15.730Z,97086.73
2018-02-03T14:48:43.607Z,97087.40
2018-02-03T14:51:11.056Z,97088.70
2018-02-03T14:53:38.505Z,97090.75
2018-02-03T14:56:06.205Z,97094.19
2018-02-03T14:58:33.653Z,97092.69
2018-02-03T15:01:01.104Z,97090.09
2018-02-03T15:03:28.977Z,97099.55
2018-02-03T15:05:56.426Z,97094.23
2018-02-03T15:08:23.884Z,97097.47
2018-02-03T15:10:51.976Z,97094.71
2018-02-03T15:13:19.428Z,97091.00
2018-02-03T15:15:46.897Z,97091.92
2018-02-03T15:18:14.649Z,97092.06
2018-02-03T15:20:42.101Z,97097.91
2018-02-03T15:23:09.553Z,97103.06
2018-02-03T15:25:37.345Z,97094.66
2018-02-03T15:28:04.792Z,97098.72
2018-02-03T15:30:32.944Z,97099.59
2018-02-03T15:33:00.696Z,97096.41
2018-02-03T15:35:28.160Z,97107.31
2018-02-03T15:37:55.611Z,97115.41
2018-02-03T15:40:23.651Z,97116.14
2018-02-03T15:42:51.114Z,97117.76
2018-02-03T15:45:18.568Z,97117.86
2018-02-03T15:47:46.323Z,97129.91
2018-02-03T15:50:13.798Z,97121.92
2018-02-03T15:52:41.252Z,97124.66
2018-02-03T15:55:09.322Z,97127.69
2018-02-03T15:57:36.770Z,97128.24
2018-02-03T16:00:04.230Z,97130.78
2018-02-03T16:02:32.309Z,97131.80
2018-02-03T16:04:59.767Z,97130.40
2018-02-03T16:07:27.216Z,97137.63
2018-02-03T16:09:55.016Z,97139.35
2018-02-03T16:12:22.497Z,97140.97
2018-02-03T16:14:49.947Z,97136.30
2018-02-03T16:17:17.705Z,97146.69
2018-02-03T16:19:45.156Z,97146.12
2018-02-03T16:22:12.604Z,97145.84
2018-02-03T16:24:40.700Z,97144.72
2018-02-03T16:27:08.152Z,97156.44
2018-02-03T16:29:35.604Z,97155.48
2018-02-03T16:32:04.448Z,97159.27
2018-02-03T16:34:31.920Z,97157.73
2018-02-03T16:36:59.375Z,97162.56
2018-02-03T16:39:27.597Z,97162.47
2018-02-03T16:41:55.052Z,97167.81
2018-02-03T16:44:22.505Z,97167.55
2018-02-03T16:46:50.177Z,97161.23
2018-02-03T16:49:17.630Z,97168.73
2018-02-03T16:51:45.078Z,97167.89
2018-02-03T16:54:12.964Z,97173.67
2018-02-03T16:56:42.361Z,97177.14
2018-02-03T16:59:09.829Z,97182.36
2018-02-03T17:01:37.493Z,97176.85
2018-02-03T17:04:04.942Z,97177.16
2018-02-03T17:06:32.386Z,97182.75
2018-02-03T17:09:00.188Z,97184.40
2018-02-03T17:11:27.645Z,97189.93
2018-02-03T17:13:55.090Z,97188.85
2018-02-03T17:16:23.175Z,97187.48
2018-02-03T17:18:50.624Z,97193.58
2018-02-03T17:21:18.088Z,97186.92
2018-02-03T17:23:45.885Z,97198.57
2018-02-03T17:26:13.328Z,97197.28
2018-02-03T17:28:40.810Z,97194.96
2018-02-03T17:31:08.556Z,97200.93
2018-02-03T17:33:36.402Z,97198.69
2018-02-03T17:36:03.844Z,97196.68
2018-02-03T17:38:51.141Z,97204.00
2018-02-03T17:41:18.603Z,97209.61
2018-02-03T17:43:46.046Z,97221.12
2018-02-03T17:46:19.348Z,97219.31
2018-02-03T17:48:46.809Z,97222.14
2018-02-03T17:51:14.257Z,97224.77
2018-02-03T17:53:42.078Z,97228.14
2018-02-03T17:56:14.972Z,97235.53
2018-02-03T17:58:42.425Z,97232.52
2018-02-03T18:01:10.344Z,97230.83
2018-02-03T18:03:37.798Z,97237.13
2018-02-03T18:06:05.257Z,97238.89
2018-02-03T18:08:33.532Z,97234.30
2018-02-03T18:11:00.979Z,97236.45
2018-02-03T18:13:28.437Z,97237.90
2018-02-03T18:15:56.275Z,97235.77
2018-02-03T18:18:23.725Z,97236.22
2018-02-03T18:20:51.180Z,97244.35
2018-02-03T18:23:19.004Z,97243.69
2018-02-03T18:25:46.452Z,97238.46
2018-02-03T18:28:13.903Z,97243.85
2018-02-03T18:30:41.700Z,97244.59
2018-02-03T18:33:09.153Z,97248.42
2018-02-03T18:35:38.835Z,97249.95
2018-02-03T18:38:06.529Z,97249.40
2018-02-03T18:40:33.968Z,97253.30
2018-02-03T18:43:01.430Z,97253.27
2018-02-03T18:45:41.011Z,97253.71
2018-02-03T18:48:08.466Z,97261.75
2018-02-03T18:50:35.912Z,97268.92
2018-02-03T18:53:04.190Z,97267.36
2018-02-03T18:55:31.639Z,97278.09
2018-02-03T18:57:59.094Z,97287.25
2018-02-03T19:00:26.877Z,97298.62
2018-02-03T19:02:54.331Z,97293.52
2018-02-03T19:05:21.786Z,97300.38
2018-02-03T19:07:49.465Z,97291.88
2018-02-03T19:10:16.913Z,97285.70
2018-02-03T19:12:44.368Z,97295.91
2018-02-03T19:15:12.268Z,97293.06
2018-02-03T19:17:39.721Z,97298.50
2018-02-03T19:20:07.175Z,97291.34
2018-02-03T19:22:34.950Z,97290.34
2018-02-03T19:25:02.419Z,97286.00
2018-02-03T19:27:29.870Z,97302.30
2018-02-03T19:29:57.625Z,97305.73
2018-02-03T19:32:25.075Z,97307.61
2018-02-03T19:34:52.528Z,97304.84
2018-02-03T19:37:20.950Z,97309.92
2018-02-03T19:39:48.404Z,97308.55
2018-02-03T19:42:17.045Z,97312.50
2018-02-03T19:44:44.840Z,97311.61
2018-02-03T19:47:12.382Z,97312.64
2018-02-03T19:49:39.836Z,97313.66
2018-02-03T19:52:07.545Z,97323.78
2018-02-03T19:54:35.005Z,97321.92
2018-02-03T19:57:02.460Z,97326.28
2018-02-03T19:59:30.533Z,97325.31
2018-02-03T20:01:57.993Z,97326.48
2018-02-03T20:04:25.444Z,97328.59
2018-02-03T20:06:53.222Z,97328.77
2018-02-03T20:09:20.678Z,97332.74
2018-02-03T20:11:48.145Z,97334.63
2018-02-03T20:14:15.960Z,97338.17
2018-02-03T20:16:43.415Z,97343.88
2018-02-03T20:19:10.885Z,97348.96
2018-02-03T20:21:38.594Z,97349.33
2018-02-03T20:24:06.049Z,97347.03
2018-02-03T20:26:33.505Z,97345.12
2018-02-03T20:29:01.376Z,97357.64
2018-02-03T20:31:28.831Z,97355.90
2018-02-03T20:33:56.289Z,97360.14
2018-02-03T20:36:24.273Z,97362.11
2018-02-03T20:38:52.432Z,97357.67
2018-02-03T20:41:19.902Z,97364.61
2018-02-03T20:43:47.668Z,97361.88
2018-02-03T20:46:15.111Z,97367.21
2018-02-03T20:48:42.572Z,97370.85
2018-02-03T20:51:10.268Z,97370.55
2018-02-03T20:53:37.724Z,97374.83
2018-02-03T20:56:05.193Z,97373.02
2018-02-03T20:58:32.945Z,97371.25
2018-02-03T21:01:00.413Z,97372.61
2018-02-03T21:03:27.865Z,97378.00
2018-02-03T21:05:55.631Z,97371.81
2018-02-03T21:08:23.080Z,97382.19
2018-02-03T21:10:50.533Z,97384.53
2018-02-03T21:13:18.345Z,97387.64
2018-02-03T21:15:45.804Z,97385.78
2018-02-03T21:18:13.268Z,97389.59
2018-02-03T21:20:41.020Z,97387.73
2018-02-03T21:23:08.476Z,97387.64
2018-02-03T21:25:35.952Z,97395.25
2018-02-03T21:28:03.997Z,97394.56
2018-02-03T21:30:31.453Z,97393.22
2018-02-03T21:32:58.925Z,97390.22
2018-02-03T21:35:26.692Z,97396.35
2018-02-03T21:37:54.144Z,97394.87
2018-02-03T21:40:23.538Z,97395.66
2018-02-03T21:42:51.257Z,97401.17
2018-02-03T21:45:18.913Z,97399.33
2018-02-03T21:47:46.392Z,97400.33
2018-02-03T21:50:14.216Z,97403.70
2018-02-03T21:52:41.682Z,97399.64
2018-02-03T21:55:09.136Z,97406.91
2018-02-03T21:57:36.896Z,97404.25
2018-02-03T22:00:04.367Z,97414.20
2018-02-03T22:02:31.832Z,97413.72
2018-02-03T22:04:59.580Z,97414.67
2018-02-03T22:07:27.033Z,97414.31
2018-02-03T22:09:54.559Z,97420.88
2018-02-03T22:12:22.279Z,97420.88
2018-02-03T22:14:49.740Z,97422.95
2018-02-03T22:17:17.244Z,97425.75
2018-02-03T22:19:44.956Z,97425.80
2018-02-03T22:22:12.416Z,97426.26
2018-02-03T22:24:39.868Z,97429.10
2018-02-03T22:27:07.672Z,97430.06
2018-02-03T22:29:35.136Z,97425.45
2018-02-03T22:32:02.589Z,97427.13
2018-02-03T22:34:30.348Z,97421.55
2018-02-03T22:36:57.804Z,97425.95
2018-02-03T22:39:25.282Z,97425.50
2018-02-03T22:41:53.648Z,97432.27
2018-02-03T22:44:21.141Z,97430.09
2018-02-03T22:46:48.604Z,97425.59
2018-02-03T22:49:16.338Z,97429.76
2018-02-03T22:51:43.795Z,97425.68
2018-02-03T22:54:11.266Z,97427.39
2018-02-03T22:56:39.014Z,97431.78
2018-02-03T22:59:06.484Z,97434.26
2018-02-03T23:01:33.936Z,97436.84
2018-02-03T23:04:01.649Z,97436.45
2018-02-03T23:06:29.106Z,97438.58
2018-02-03T23:08:56.563Z,97437.95
2018-02-03T23:11:24.396Z,97441.30
2018-02-03T23:13:51.853Z,97440.52
2018-02-03T23:16:19.312Z,97443.82
2018-02-03T23:18:47.377Z,97455.70
2018-02-03T23:21:14.848Z,97447.30
2018-02-03T23:23:42.317Z,97450.20
2018-02-03T23:26:10.251Z,97451.41
2018-02-03T23:28:37.708Z,97455.63
2018-02-03T23:31:05.167Z,97456.48
2018-02-03T23:33:33.060Z,97461.02
2018-02-03T23:36:00.507Z,97464.34
2018-02-03T23:38:27.955Z,97467.59
2018-02-03T23:40:55.755Z,97474.58
2018-02-03T23:43:23.584Z,97473.19
2018-02-03T23:45:51.039Z,97481.42
2018-02-03T23:48:19.355Z,97482.89
2018-02-03T23:50:46.809Z,97483.50
2018-02-03T23:53:14.252Z,97480.16
2018-02-03T23:55:42.041Z,97487.96
2018-02-03T23:58:09.496Z,97488.47
